METAR Data
IDs: Format: Raw Decoded Include TAF

Data at: 0323 UTC 14 Dec 2018

Region: TOP
KATL 140252Z 08013KT 10SM FEW025 BKN070 OVC200 09/02 A3015 RMK AO2 SLP213 T00940022 58008

KBOS 140254Z 17004KT 10SM OVC065 01/M05 A3057 RMK AO2 SLP350 T00111050 50001

KBWI 140254Z 08004KT 10SM BKN065 05/02 A3040 RMK AO2 SLP294 T00500017 53010

KCLE 140251Z 14006KT 9SM SCT250 02/00 A3023 RMK AO2 SLP243 T00220000 50000

KCLT 140252Z 10006KT 10SM OVC055 10/02 A3029 RMK AO2 SLP257 T01000022 58003

KCVG 140252Z 12006KT 10SM SCT150 OVC250 07/03 A3014 RMK AO2 SLP206 T00670028 55000

KDCA 140252Z 00000KT 10SM OVC070 08/02 A3040 RMK AO2 SLP294 T00780017 51009

KDEN 140253Z 17011KT 10SM FEW220 M05/M16 A3024 RMK AO2 SLP275 T10501161 51009

KDFW 140253Z 36013KT 10SM OVC010 08/06 A2977 RMK AO2 SLP078 T00780056 53011

KDTW 140253Z 05003KT 4SM HZ SCT100 BKN200 01/M03 A3020 RMK AO2 SLP232 T00111033 58003

KEWR 140251Z 02009KT 8SM FEW008 BKN011 OVC030 03/01 A3048 RMK AO2 RAE24 SLP319 P0000 60000 T00280011 51006

KFLL 140253Z COR 14009KT 10SM SCT030 SCT200 BKN250 23/19 A3009 RMK SLP188 T02330194 50001

KIAD 140252Z 00000KT 10SM OVC070 05/01 A3039 RMK AO2 SLP290 T00500011 53009

KIAH 140253Z COR 28011KT 10SM CLR 13/06 A2980 RMK AO2 PK WND 28029/0221 SLP090 T01280061 53025 $

KJFK 140251Z 06007KT 10SM SCT018 BKN029 OVC045 06/04 A3048 RMK AO2 SLP321 T00560044 51005

KLAS 140256Z 23004KT 10SM CLR 10/M07 A3034 RMK AO2 SLP275 T01001067 53002

KLAX 140253Z 00000KT 10SM FEW200 18/08 A3017 RMK AO2 SLP217 T01780083 53007

KLGA 140251Z 04009KT 10SM FEW008 OVC012 06/03 A3048 RMK AO2 SLP321 T00560028 51007 $

KMCO 140253Z 14014KT 10SM BKN250 OVC300 19/16 A3008 RMK AO2 SLP183 T01940161 58013

KMDW 140315Z 08005KT 1 3/4SM RA BR OVC004 05/03 A3009 RMK AO2 P0003 T00500033

KMEM 140304Z 12012KT 3SM RA BR FEW010 BKN014 OVC026 12/11 A2987 RMK AO2 P0003 T01170111

KMIA 140253Z 13007KT 10SM FEW035 BKN250 22/19 A3009 RMK AO2 SLP190 T02220189 58001

KMSP 140253Z 23004KT 6SM BR OVC007 00/M01 A3015 RMK AO2 SLP220 T00001011 51012

KORD 140320Z 10006KT 2 1/2SM -RA BR OVC005 04/04 A3008 RMK AO2 P0002 T00440039

KPDX 140253Z 11010KT 10SM BKN200 07/03 A3000 RMK AO2 SLP157 T00720033 58016

KPHL 140254Z 05005KT 10SM SCT030 02/00 A3045 RMK AO2 SLP310 T00170000 51010 $

KPHX 140251Z 00000KT 10SM CLR 14/M06 A3023 RMK AO2 SLP231 T01441061 53007

KPIT 140251Z 00000KT 9SM FEW250 01/01 A3024 RMK AO2 SLP257 T00110006 50000

KSAN 140251Z 25004KT 10SM FEW250 17/14 A3019 RMK AO2 SLP224 T01720139 53005

KSEA 140253Z 10005KT 10SM OVC055 09/07 A2996 RMK AO2 SLP153 T00940067 56011

KSFO 140256Z 00000KT 10SM CLR 13/08 A3013 RMK AO2 SLP202 T01280083 58005

KSLC 140254Z 13004KT 10SM CLR M01/M05 A3047 RMK AO2 SLP343 T10111050 55001 $

KSTL 140300Z 07003KT 4SM -RA BR OVC004 09/09 A2999 RMK AO2 P0001 T00890089 $

KTPA 140253Z 13011KT 10SM SCT060 BKN250 22/15 A3004 RMK AO2 SLP172 T02170150 56011